TimeCDT,TemperatureF,Dew PointF,Humidity,Sea Level PressureIn,VisibilityMPH,Wind Direction,Wind SpeedMPH,Gust SpeedMPH,PrecipitationIn,Events,Conditions,WindDirDegrees,DateUTC
12:54 AM,59.0,46.0,62,29.88,10.0,NW,11.5,-,N/A,,Clear,310,2013-09-24 05:54:00
1:54 AM,57.9,45.0,62,29.90,10.0,NW,12.7,-,N/A,,Clear,310,2013-09-24 06:54:00
2:54 AM,57.0,45.0,64,29.93,10.0,NNW,15.0,24.2,N/A,,Clear,330,2013-09-24 07:54:00
3:54 AM,55.0,46.0,72,29.94,10.0,WNW,9.2,-,N/A,,Clear,300,2013-09-24 08:54:00
4:54 AM,54.0,46.0,75,29.96,10.0,WNW,9.2,-,N/A,,Clear,300,2013-09-24 09:54:00
5:54 AM,48.9,45.0,86,29.98,10.0,WNW,8.1,-,N/A,,Clear,290,2013-09-24 10:54:00
6:54 AM,50.0,46.0,86,29.99,10.0,WNW,8.1,-,N/A,,Clear,300,2013-09-24 11:54:00
7:54 AM,51.1,46.0,83,30.01,10.0,WNW,9.2,-,N/A,,Clear,300,2013-09-24 12:54:00
8:54 AM,55.9,46.9,72,30.01,10.0,NW,9.2,-,N/A,,Clear,310,2013-09-24 13:54:00
9:54 AM,64.0,46.0,52,30.02,10.0,NW,11.5,-,N/A,,Clear,310,2013-09-24 14:54:00
10:54 AM,71.1,39.9,32,30.02,10.0,NW,15.0,-,N/A,,Clear,320,2013-09-24 15:54:00
11:54 AM,75.0,37.0,25,30.01,10.0,NW,17.3,23.0,N/A,,Clear,320,2013-09-24 16:54:00
12:54 PM,77.0,34.0,21,30.00,10.0,NNW,16.1,21.9,N/A,,Clear,330,2013-09-24 17:54:00
1:54 PM,79.0,33.1,19,29.98,10.0,NW,16.1,21.9,N/A,,Clear,320,2013-09-24 18:54:00
2:54 PM,80.1,33.1,18,29.95,10.0,NNW,16.1,20.7,N/A,,Clear,340,2013-09-24 19:54:00
3:54 PM,80.1,33.1,18,29.94,10.0,NNW,12.7,17.3,N/A,,Clear,330,2013-09-24 20:54:00
4:54 PM,80.1,33.1,18,29.92,9.0,West,6.9,-,N/A,,Clear,280,2013-09-24 21:54:00
5:54 PM,79.0,33.1,19,29.93,10.0,NNW,6.9,-,N/A,,Clear,340,2013-09-24 22:54:00
6:54 PM,77.0,35.1,22,29.91,10.0,NNE,5.8,-,N/A,,Clear,30,2013-09-24 23:54:00
7:54 PM,68.0,37.0,32,29.93,10.0,ENE,6.9,-,N/A,,Clear,70,2013-09-25 00:54:00
8:54 PM,64.0,37.0,37,29.93,10.0,East,8.1,-,N/A,,Clear,90,2013-09-25 01:54:00
9:54 PM,63.0,37.0,38,29.92,10.0,East,9.2,-,N/A,,Clear,80,2013-09-25 02:54:00
10:54 PM,57.9,37.9,47,29.91,10.0,ESE,6.9,-,N/A,,Clear,110,2013-09-25 03:54:00
11:54 PM,55.0,39.0,55,29.90,10.0,SE,6.9,-,N/A,,Clear,130,2013-09-25 04:54:00